Hs Carmen — A8KD6 — position and weather

sailwx.info

Track history (hours):
 
Tides and Currents Weather Stations Pressure Air Temp Water Temp Dewpoint Dewpoint Depression Visibility Wind Speed Wind Dir Waves Ship Positions

Hs Carmen

Last reported at 2018-May-19 16:32 UTC. Time now 2018-Jun-18 15:10 UTC.
Position N 28°33' W 093°59'.
Warning: this ship's position is 29 days out of date.

Length 237 m; draft 8 m.

Type: Tanker. MMSI: 636091174.

Date/timePositionNaut miles runAvg speedWind from/ knotsBaromVisibWave heightAir tempDewpointWater temp
2018-May-19 16:32N 28°33' W 093°59'2 9.3
2018-May-19 16:20N 28°32' W 094°01'24 9.9
2018-May-19 13:57N 28°27' W 094°27'4 0.2
2018-May-18 12:49N 28°26' W 094°31'0 0.0
2018-May-18 12:13N 28°26' W 094°31'0 0.0
2018-May-18 11:58N 28°26' W 094°31'0 0.0
2018-May-18 11:28N 28°26' W 094°31'0 0.0
2018-May-18 10:52N 28°26' W 094°31'0 0.0
2018-May-18 10:25N 28°26' W 094°31'0 0.0
2018-May-18 09:58N 28°26' W 094°31'0 0.0
2018-May-18 09:22N 28°26' W 094°31'0 0.0
2018-May-18 08:58N 28°26' W 094°31'0 0.0
2018-May-18 08:25N 28°26' W 094°31'0 0.0
2018-May-18 07:55N 28°26' W 094°31'0 0.0
2018-May-18 07:28N 28°26' W 094°31'0 0.0
2018-May-18 06:55N 28°26' W 094°31'0 0.0
2018-May-18 06:28N 28°26' W 094°31'0 0.1
2018-May-18 05:58N 28°26' W 094°31'0 0.0
2018-May-18 05:28N 28°26' W 094°31'0 0.1
2018-May-18 04:52N 28°26' W 094°31'0 0.1
2018-May-18 04:22N 28°26' W 094°31'0 0.0
2018-May-18 03:52N 28°26' W 094°31'0 0.1
2018-May-18 03:25N 28°26' W 094°31'0 0.0
2018-May-18 02:58N 28°26' W 094°31'0 0.1
2018-May-18 02:25N 28°26' W 094°31'0 0.0
2018-May-18 01:58N 28°26' W 094°31'0 0.0
2018-May-18 01:25N 28°26' W 094°31'0 0.0
2018-May-18 00:58N 28°26' W 094°31'0 0.0
2018-May-18 00:28N 28°26' W 094°31'0 0.0
2018-May-17 23:58N 28°26' W 094°31'0 0.0
2018-May-17 23:25N 28°26' W 094°31'0 0.0
2018-May-17 22:58N 28°26' W 094°31'0 0.0
2018-May-17 22:28N 28°26' W 094°31'0 0.0
2018-May-17 21:58N 28°26' W 094°31'0 0.0
2018-May-17 21:28N 28°26' W 094°31'0 0.1
2018-May-17 20:58N 28°26' W 094°31'0 0.0
2018-May-17 19:46N 28°26' W 094°31'0 0.1
2018-May-17 19:28N 28°26' W 094°31'0 0.0
2018-May-17 18:49N 28°26' W 094°31'0 0.0
2018-May-17 18:25N 28°26' W 094°31'0 0.0
2018-May-17 17:58N 28°26' W 094°31'0 0.0
2018-May-17 17:10N 28°26' W 094°31'0 0.0
2018-May-17 16:52N 28°26' W 094°31'0 0.0
2018-May-17 16:01N 28°26' W 094°31'0 0.0
2018-May-17 15:49N 28°26' W 094°31'0 0.0
2018-May-17 14:43N 28°26' W 094°31'0 0.0
2018-May-17 14:19N 28°26' W 094°31'0 0.0
2018-May-17 13:58N 28°26' W 094°31'0 0.0
2018-May-17 13:28N 28°26' W 094°31'0 0.0
2018-May-17 12:58N 28°26' W 094°31'0 0.0
2018-May-17 10:28N 28°26' W 094°31'0 0.0
2018-May-17 09:46N 28°26' W 094°31'0 0.1
2018-May-17 09:28N 28°26' W 094°31'0 0.0
2018-May-17 06:40N 28°26' W 094°31'0 0.0
2018-May-17 06:19N 28°26' W 094°31'0 0.0
2018-May-17 05:58N 28°26' W 094°31'0 0.1
2018-May-17 05:22N 28°26' W 094°31'0 0.1
2018-May-17 04:55N 28°26' W 094°31'0 0.1
2018-May-17 04:28N 28°26' W 094°31'0 0.1
2018-May-17 03:58N 28°26' W 094°31'0 0.0
2018-May-17 03:28N 28°26' W 094°31'0 0.1
2018-May-17 02:46N 28°26' W 094°31'0 0.8
2018-May-17 02:30N 28°26' W 094°32'2 3.8
2018-May-17 02:00N 28°26' W 094°34'0 0.4
2018-May-17 01:30N 28°26' W 094°34'1 1.4
2018-May-17 01:00N 28°26' W 094°34'0 0.1
2018-May-17 00:30N 28°26' W 094°34'0 0.2
2018-May-17 00:00N 28°26' W 094°34'0 0.0
2018-May-16 23:30N 28°26' W 094°34'0 0.0
2018-May-16 23:00N 28°26' W 094°34'0 0.0
2018-May-16 22:30N 28°26' W 094°34'0 0.0
2018-May-16 22:00N 28°26' W 094°34'0 0.0
2018-May-16 21:30N 28°26' W 094°34'0 0.0
2018-May-16 21:00N 28°26' W 094°34'0 0.0
2018-May-16 20:30N 28°26' W 094°34'0 0.0
2018-May-16 20:00N 28°26' W 094°34'0 0.0
2018-May-16 19:29N 28°26' W 094°34'0 0.0
2018-May-16 19:00N 28°26' W 094°34'0 0.0
2018-May-16 18:24N 28°26' W 094°34'0 0.0
2018-May-16 17:50N 28°26' W 094°34'0 0.1
2018-May-16 17:28N 28°26' W 094°34'0 0.0
2018-May-16 17:00N 28°26' W 094°34'0 0.0
2018-May-16 16:30N 28°26' W 094°34'0 0.0
2018-May-16 16:00N 28°26' W 094°34'0 0.0
2018-May-16 15:29N 28°26' W 094°34'0 0.0
2018-May-16 15:00N 28°26' W 094°34'0 0.0
2018-May-16 14:31N 28°26' W 094°34'0 0.0
2018-May-16 14:00N 28°26' W 094°34'0 0.0
2018-May-16 13:31N 28°26' W 094°34'0 0.0
2018-May-16 13:00N 28°26' W 094°34'0 0.0
2018-May-16 12:30N 28°26' W 094°34'0 0.1
2018-May-16 12:00N 28°26' W 094°34'0 0.1
2018-May-16 11:30N 28°26' W 094°34'0 0.1
2018-May-16 11:01N 28°26' W 094°34'0 0.1
2018-May-16 10:30N 28°26' W 094°34'0 0.1
2018-May-16 10:00N 28°26' W 094°34'0 0.0
2018-May-16 09:28N 28°26' W 094°34'0 0.0
2018-May-16 09:00N 28°26' W 094°34'0 0.1
2018-May-16 08:31N 28°26' W 094°34'0 0.0
2018-May-16 08:00N 28°26' W 094°34'0 0.1
2018-May-16 07:30N 28°26' W 094°34'0 0.1
2018-May-16 07:00N 28°26' W 094°34'0 0.1
2018-May-16 06:30N 28°26' W 094°34'0 0.1
2018-May-16 06:01N 28°26' W 094°34'0 0.1
2018-May-16 05:27N 28°26' W 094°34'0 0.0
2018-May-16 04:49N 28°26' W 094°35'0 0.1
2018-May-16 04:30N 28°26' W 094°35'0 0.1
2018-May-16 04:00N 28°26' W 094°35'0 0.1
2018-May-16 03:29N 28°26' W 094°35'0 0.1
2018-May-16 03:00N 28°26' W 094°35'0 0.1
2018-May-16 02:30N 28°26' W 094°35'0 0.0
2018-May-16 01:59N 28°26' W 094°35'0 0.0
2018-May-16 01:30N 28°26' W 094°35'0 0.0
2018-May-16 01:00N 28°26' W 094°34'0 0.3
2018-May-16 00:30N 28°26' W 094°34'0 0.7
2018-May-16 00:00N 28°26' W 094°34'0 0.9
2018-May-15 23:30N 28°26' W 094°34'1 2.6
2018-May-15 22:59N 28°27' W 094°33'2 5.0
2018-May-15 22:29N 28°28' W 094°30'3 5.3
2018-May-15 21:52N 28°29' W 094°26'6 5.3
2018-May-15 20:42N 28°31' W 094°20'0 0.6
2018-May-15 20:27N 28°31' W 094°20'0 0.6
2018-May-15 20:01N 28°31' W 094°20'0 0.5
2018-May-15 19:22N 28°31' W 094°19'0 0.5
2018-May-15 19:00N 28°32' W 094°19'0 0.4
2018-May-15 18:30N 28°32' W 094°19'0 0.4
2018-May-15 17:59N 28°32' W 094°19'2 3.8
2018-May-15 17:26N 28°33' W 094°17'4 8.3
2018-May-15 17:00N 28°34' W 094°13'1 2.7
2018-May-15 16:30N 28°35' W 094°12'0 0.0
2018-May-15 16:00N 28°35' W 094°12'0 0.0
2018-May-15 15:27N 28°35' W 094°12'0 0.0
2018-May-15 14:51N 28°35' W 094°12'0 0.0
2018-May-15 14:30N 28°35' W 094°12'0 0.0
2018-May-15 13:57N 28°35' W 094°12'0 0.0
2018-May-15 13:27N 28°35' W 094°12'0 0.0
2018-May-15 12:57N 28°35' W 094°12'0 0.0
2018-May-15 12:24N 28°35' W 094°12'0 0.0
2018-May-15 12:00N 28°35' W 094°12'0 0.0
2018-May-15 11:30N 28°35' W 094°12'0 0.1
2018-May-15 10:54N 28°35' W 094°12'0 0.0
2018-May-15 10:30N 28°35' W 094°12'0 0.0
2018-May-15 09:57N 28°35' W 094°12'0 0.0
2018-May-15 09:27N 28°35' W 094°12'0 0.0
2018-May-15 09:00N 28°35' W 094°12'0 0.0
2018-May-15 08:27N 28°35' W 094°12'0 0.0
2018-May-15 07:51N 28°35' W 094°12'0 0.0
2018-May-15 07:30N 28°35' W 094°12'0 0.0
2018-May-15 07:00N 28°35' W 094°12'0 0.0
2018-May-15 06:30N 28°35' W 094°12'0 0.0
2018-May-15 06:00N 28°35' W 094°12'0 0.0
2018-May-15 05:27N 28°35' W 094°12'0 0.1
2018-May-15 05:00N 28°35' W 094°12'0 0.0
2018-May-15 04:30N 28°35' W 094°12'0 0.1
2018-May-15 03:57N 28°35' W 094°12'0 0.1
2018-May-15 03:24N 28°35' W 094°12'0 0.1
2018-May-15 03:00N 28°35' W 094°12'0 0.1
2018-May-15 02:30N 28°35' W 094°12'0 0.1
2018-May-15 01:45N 28°34' W 094°12'0 0.1
2018-May-15 01:27N 28°34' W 094°12'0 0.1
2018-May-15 01:00N 28°34' W 094°12'0 0.0
2018-May-15 00:30N 28°34' W 094°12'0 0.0
2018-May-14 23:57N 28°34' W 094°12'0 0.0
2018-May-14 23:30N 28°34' W 094°12'0 0.0
2018-May-14 23:00N 28°34' W 094°12'0 0.0
2018-May-14 22:30N 28°34' W 094°12'0 0.0
2018-May-14 22:00N 28°34' W 094°12'0 0.0
2018-May-14 21:30N 28°34' W 094°12'0 0.0
2018-May-14 21:00N 28°34' W 094°12'0 0.0
2018-May-14 20:27N 28°34' W 094°12'0 0.0
2018-May-14 20:00N 28°34' W 094°12'0 0.0
2018-May-14 19:30N 28°34' W 094°12'0 0.0
2018-May-14 18:51N 28°34' W 094°12'0 0.0
2018-May-14 18:30N 28°34' W 094°12'0 0.1
2018-May-14 17:57N 28°35' W 094°12'0 0.1
2018-May-14 17:27N 28°35' W 094°12'0 0.0
2018-May-14 16:57N 28°35' W 094°12'0 0.1
2018-May-14 16:24N 28°35' W 094°12'0 0.0
2018-May-14 16:00N 28°35' W 094°12'0 0.0
2018-May-14 15:30N 28°35' W 094°12'0 0.0
2018-May-14 14:15N 28°35' W 094°12'0 0.0
2018-May-14 13:03N 28°35' W 094°12'0 0.0
2018-May-14 12:48N 28°35' W 094°12'0 0.0
2018-May-14 11:15N 28°35' W 094°12'0 0.0
2018-May-14 11:00N 28°35' W 094°12'0 0.0
2018-May-14 10:21N 28°35' W 094°12'0 0.0
2018-May-14 10:00N 28°35' W 094°12'0 0.0
2018-May-14 06:48N 28°35' W 094°12'0 0.0
2018-May-13 02:39N 28°35' W 094°12'0 0.0
2018-May-13 02:27N 28°35' W 094°12'0 0.0
2018-May-12 22:39N 28°34' W 094°12'0 0.0
2018-May-12 10:51N 28°35' W 094°12'0 0.0
2018-May-12 10:30N 28°35' W 094°12'0 0.0
2018-May-12 09:48N 28°35' W 094°12'0 0.0
2018-May-12 09:30N 28°35' W 094°12'0 0.0
2018-May-12 09:00N 28°35' W 094°12'0 0.0
2018-May-12 08:21N 28°35' W 094°12'0 0.0
2018-May-12 08:00N 28°35' W 094°12'0 0.0
2018-May-12 07:30N 28°35' W 094°12'0 0.0
2018-May-12 06:51N 28°35' W 094°12'0 0.0
2018-May-11 02:21N 28°35' W 094°12'0 0.0
2018-May-11 01:48N 28°35' W 094°12'0 0.0
2018-May-10 21:30N 28°35' W 094°12'0 0.0
2018-May-10 21:00N 28°35' W 094°12'0 0.0
2018-May-10 20:00N 28°35' W 094°12'0 0.3
2018-May-10 19:30N 28°35' W 094°12'0 0.1
2018-May-10 18:54N 28°35' W 094°12'0 0.1
2018-May-10 18:30N 28°35' W 094°12'0 0.0
2018-May-10 15:57N 28°35' W 094°12'0 0.0
2018-May-10 15:15N 28°35' W 094°12'0 0.0
2018-May-10 14:57N 28°35' W 094°12'0 0.0
2018-May-10 14:30N 28°35' W 094°12'0 0.0
2018-May-10 13:54N 28°35' W 094°12'0 0.0
2018-May-10 12:27N 28°35' W 094°12'0 0.1
2018-May-10 12:00N 28°35' W 094°12'0 0.0
2018-May-10 11:15N 28°35' W 094°12'0 0.0
2018-May-10 11:00N 28°35' W 094°12'0 0.0
2018-May-10 10:30N 28°35' W 094°12'0 0.0
2018-May-10 10:00N 28°35' W 094°12'0 0.0
2018-May-10 09:27N 28°35' W 094°12'0 0.0
2018-May-10 09:00N 28°35' W 094°12'0 0.0
2018-May-10 08:30N 28°35' W 094°12'0 0.0
2018-May-10 07:57N 28°35' W 094°12'0 0.0
2018-May-10 07:18N 28°35' W 094°12'0 0.0
2018-May-10 06:57N 28°35' W 094°12'0 0.0
2018-May-10 06:24N 28°35' W 094°12'0 0.0
2018-May-10 06:00N 28°35' W 094°12'0 0.0
2018-May-10 05:30N 28°35' W 094°12'0 0.0
2018-May-10 04:57N 28°35' W 094°12'0 0.0
2018-May-10 04:30N 28°35' W 094°12'0 0.0
2018-May-10 04:00N 28°35' W 094°12'0 0.1
2018-May-10 02:45N 28°35' W 094°12'0 0.0
2018-May-09 21:06N 28°34' W 094°12'0 0.1
2018-May-09 20:42N 28°34' W 094°12'0 0.1
2018-May-09 20:27N 28°34' W 094°12'0 0.0
2018-May-09 18:42N 28°34' W 094°12'0 0.2
2018-May-09 18:30N 28°35' W 094°12'4 6.4
2018-May-09 17:48N 28°34' W 094°17'412.2
2018-May-09 17:30N 28°34' W 094°21'612.2
2018-May-09 17:00N 28°34' W 094°28'  
Track history (hours):
 
Tides and Currents Weather Stations Pressure Air Temp Water Temp Dewpoint Dewpoint Depression Visibility Wind Speed Wind Dir Waves Ship Positions

Hs Carmen

Last reported at 2018-May-19 16:32 UTC. Time now 2018-Jun-18 15:10 UTC.
Position N 28°33' W 093°59'.
Warning: this ship's position is 29 days out of date.

Length 237 m; draft 8 m.

Type: Tanker. MMSI: 636091174.

Date/timePositionNaut miles runAvg speedWind from/ knotsBaromVisibWave heightAir tempDewpointWater temp
2018-May-19 16:32N 28°33' W 093°59'2 9.3
2018-May-19 16:20N 28°32' W 094°01'24 9.9
2018-May-19 13:57N 28°27' W 094°27'4 0.2
2018-May-18 12:49N 28°26' W 094°31'0 0.0
2018-May-18 12:13N 28°26' W 094°31'0 0.0
2018-May-18 11:58N 28°26' W 094°31'0 0.0
2018-May-18 11:28N 28°26' W 094°31'0 0.0
2018-May-18 10:52N 28°26' W 094°31'0 0.0
2018-May-18 10:25N 28°26' W 094°31'0 0.0
2018-May-18 09:58N 28°26' W 094°31'0 0.0
2018-May-18 09:22N 28°26' W 094°31'0 0.0
2018-May-18 08:58N 28°26' W 094°31'0 0.0
2018-May-18 08:25N 28°26' W 094°31'0 0.0
2018-May-18 07:55N 28°26' W 094°31'0 0.0
2018-May-18 07:28N 28°26' W 094°31'0 0.0
2018-May-18 06:55N 28°26' W 094°31'0 0.0
2018-May-18 06:28N 28°26' W 094°31'0 0.1
2018-May-18 05:58N 28°26' W 094°31'0 0.0
2018-May-18 05:28N 28°26' W 094°31'0 0.1
2018-May-18 04:52N 28°26' W 094°31'0 0.1
2018-May-18 04:22N 28°26' W 094°31'0 0.0
2018-May-18 03:52N 28°26' W 094°31'0 0.1
2018-May-18 03:25N 28°26' W 094°31'0 0.0
2018-May-18 02:58N 28°26' W 094°31'0 0.1
2018-May-18 02:25N 28°26' W 094°31'0 0.0
2018-May-18 01:58N 28°26' W 094°31'0 0.0
2018-May-18 01:25N 28°26' W 094°31'0 0.0
2018-May-18 00:58N 28°26' W 094°31'0 0.0
2018-May-18 00:28N 28°26' W 094°31'0 0.0
2018-May-17 23:58N 28°26' W 094°31'0 0.0
2018-May-17 23:25N 28°26' W 094°31'0 0.0
2018-May-17 22:58N 28°26' W 094°31'0 0.0
2018-May-17 22:28N 28°26' W 094°31'0 0.0
2018-May-17 21:58N 28°26' W 094°31'0 0.0
2018-May-17 21:28N 28°26' W 094°31'0 0.1
2018-May-17 20:58N 28°26' W 094°31'0 0.0
2018-May-17 19:46N 28°26' W 094°31'0 0.1
2018-May-17 19:28N 28°26' W 094°31'0 0.0
2018-May-17 18:49N 28°26' W 094°31'0 0.0
2018-May-17 18:25N 28°26' W 094°31'0 0.0
2018-May-17 17:58N 28°26' W 094°31'0 0.0
2018-May-17 17:10N 28°26' W 094°31'0 0.0
2018-May-17 16:52N 28°26' W 094°31'0 0.0
2018-May-17 16:01N 28°26' W 094°31'0 0.0
2018-May-17 15:49N 28°26' W 094°31'0 0.0
2018-May-17 14:43N 28°26' W 094°31'0 0.0
2018-May-17 14:19N 28°26' W 094°31'0 0.0
2018-May-17 13:58N 28°26' W 094°31'0 0.0
2018-May-17 13:28N 28°26' W 094°31'0 0.0
2018-May-17 12:58N 28°26' W 094°31'0 0.0
2018-May-17 10:28N 28°26' W 094°31'0 0.0
2018-May-17 09:46N 28°26' W 094°31'0 0.1
2018-May-17 09:28N 28°26' W 094°31'0 0.0
2018-May-17 06:40N 28°26' W 094°31'0 0.0
2018-May-17 06:19N 28°26' W 094°31'0 0.0
2018-May-17 05:58N 28°26' W 094°31'0 0.1
2018-May-17 05:22N 28°26' W 094°31'0 0.1
2018-May-17 04:55N 28°26' W 094°31'0 0.1
2018-May-17 04:28N 28°26' W 094°31'0 0.1
2018-May-17 03:58N 28°26' W 094°31'0 0.0
2018-May-17 03:28N 28°26' W 094°31'0 0.1
2018-May-17 02:46N 28°26' W 094°31'0 0.8
2018-May-17 02:30N 28°26' W 094°32'2 3.8
2018-May-17 02:00N 28°26' W 094°34'0 0.4
2018-May-17 01:30N 28°26' W 094°34'1 1.4
2018-May-17 01:00N 28°26' W 094°34'0 0.1
2018-May-17 00:30N 28°26' W 094°34'0 0.2
2018-May-17 00:00N 28°26' W 094°34'0 0.0
2018-May-16 23:30N 28°26' W 094°34'0 0.0
2018-May-16 23:00N 28°26' W 094°34'0 0.0
2018-May-16 22:30N 28°26' W 094°34'0 0.0
2018-May-16 22:00N 28°26' W 094°34'0 0.0
2018-May-16 21:30N 28°26' W 094°34'0 0.0
2018-May-16 21:00N 28°26' W 094°34'0 0.0
2018-May-16 20:30N 28°26' W 094°34'0 0.0
2018-May-16 20:00N 28°26' W 094°34'0 0.0
2018-May-16 19:29N 28°26' W 094°34'0 0.0
2018-May-16 19:00N 28°26' W 094°34'0 0.0
2018-May-16 18:24N 28°26' W 094°34'0 0.0
2018-May-16 17:50N 28°26' W 094°34'0 0.1
2018-May-16 17:28N 28°26' W 094°34'0 0.0
2018-May-16 17:00N 28°26' W 094°34'0 0.0
2018-May-16 16:30N 28°26' W 094°34'0 0.0
2018-May-16 16:00N 28°26' W 094°34'0 0.0
2018-May-16 15:29N 28°26' W 094°34'0 0.0
2018-May-16 15:00N 28°26' W 094°34'0 0.0
2018-May-16 14:31N 28°26' W 094°34'0 0.0
2018-May-16 14:00N 28°26' W 094°34'0 0.0
2018-May-16 13:31N 28°26' W 094°34'0 0.0
2018-May-16 13:00N 28°26' W 094°34'0 0.0
2018-May-16 12:30N 28°26' W 094°34'0 0.1
2018-May-16 12:00N 28°26' W 094°34'0 0.1
2018-May-16 11:30N 28°26' W 094°34'0 0.1
2018-May-16 11:01N 28°26' W 094°34'0 0.1
2018-May-16 10:30N 28°26' W 094°34'0 0.1
2018-May-16 10:00N 28°26' W 094°34'0 0.0
2018-May-16 09:28N 28°26' W 094°34'0 0.0
2018-May-16 09:00N 28°26' W 094°34'0 0.1
2018-May-16 08:31N 28°26' W 094°34'0 0.0
2018-May-16 08:00N 28°26' W 094°34'0 0.1
2018-May-16 07:30N 28°26' W 094°34'0 0.1
2018-May-16 07:00N 28°26' W 094°34'0 0.1
2018-May-16 06:30N 28°26' W 094°34'0 0.1
2018-May-16 06:01N 28°26' W 094°34'0 0.1
2018-May-16 05:27N 28°26' W 094°34'0 0.0
2018-May-16 04:49N 28°26' W 094°35'0 0.1
2018-May-16 04:30N 28°26' W 094°35'0 0.1
2018-May-16 04:00N 28°26' W 094°35'0 0.1
2018-May-16 03:29N 28°26' W 094°35'0 0.1
2018-May-16 03:00N 28°26' W 094°35'0 0.1
2018-May-16 02:30N 28°26' W 094°35'0 0.0
2018-May-16 01:59N 28°26' W 094°35'0 0.0
2018-May-16 01:30N 28°26' W 094°35'0 0.0
2018-May-16 01:00N 28°26' W 094°34'0 0.3
2018-May-16 00:30N 28°26' W 094°34'0 0.7
2018-May-16 00:00N 28°26' W 094°34'0 0.9
2018-May-15 23:30N 28°26' W 094°34'1 2.6
2018-May-15 22:59N 28°27' W 094°33'2 5.0
2018-May-15 22:29N 28°28' W 094°30'3 5.3
2018-May-15 21:52N 28°29' W 094°26'6 5.3
2018-May-15 20:42N 28°31' W 094°20'0 0.6
2018-May-15 20:27N 28°31' W 094°20'0 0.6
2018-May-15 20:01N 28°31' W 094°20'0 0.5
2018-May-15 19:22N 28°31' W 094°19'0 0.5
2018-May-15 19:00N 28°32' W 094°19'0 0.4
2018-May-15 18:30N 28°32' W 094°19'0 0.4
2018-May-15 17:59N 28°32' W 094°19'2 3.8
2018-May-15 17:26N 28°33' W 094°17'4 8.3
2018-May-15 17:00N 28°34' W 094°13'1 2.7
2018-May-15 16:30N 28°35' W 094°12'0 0.0
2018-May-15 16:00N 28°35' W 094°12'0 0.0
2018-May-15 15:27N 28°35' W 094°12'0 0.0
2018-May-15 14:51N 28°35' W 094°12'0 0.0
2018-May-15 14:30N 28°35' W 094°12'0 0.0
2018-May-15 13:57N 28°35' W 094°12'0 0.0
2018-May-15 13:27N 28°35' W 094°12'0 0.0
2018-May-15 12:57N 28°35' W 094°12'0 0.0
2018-May-15 12:24N 28°35' W 094°12'0 0.0
2018-May-15 12:00N 28°35' W 094°12'0 0.0
2018-May-15 11:30N 28°35' W 094°12'0 0.1
2018-May-15 10:54N 28°35' W 094°12'0 0.0
2018-May-15 10:30N 28°35' W 094°12'0 0.0
2018-May-15 09:57N 28°35' W 094°12'0 0.0
2018-May-15 09:27N 28°35' W 094°12'0 0.0
2018-May-15 09:00N 28°35' W 094°12'0 0.0
2018-May-15 08:27N 28°35' W 094°12'0 0.0
2018-May-15 07:51N 28°35' W 094°12'0 0.0
2018-May-15 07:30N 28°35' W 094°12'0 0.0
2018-May-15 07:00N 28°35' W 094°12'0 0.0
2018-May-15 06:30N 28°35' W 094°12'0 0.0
2018-May-15 06:00N 28°35' W 094°12'0 0.0
2018-May-15 05:27N 28°35' W 094°12'0 0.1
2018-May-15 05:00N 28°35' W 094°12'0 0.0
2018-May-15 04:30N 28°35' W 094°12'0 0.1
2018-May-15 03:57N 28°35' W 094°12'0 0.1
2018-May-15 03:24N 28°35' W 094°12'0 0.1
2018-May-15 03:00N 28°35' W 094°12'0 0.1
2018-May-15 02:30N 28°35' W 094°12'0 0.1
2018-May-15 01:45N 28°34' W 094°12'0 0.1
2018-May-15 01:27N 28°34' W 094°12'0 0.1
2018-May-15 01:00N 28°34' W 094°12'0 0.0
2018-May-15 00:30N 28°34' W 094°12'0 0.0
2018-May-14 23:57N 28°34' W 094°12'0 0.0
2018-May-14 23:30N 28°34' W 094°12'0 0.0
2018-May-14 23:00N 28°34' W 094°12'0 0.0
2018-May-14 22:30N 28°34' W 094°12'0 0.0
2018-May-14 22:00N 28°34' W 094°12'0 0.0
2018-May-14 21:30N 28°34' W 094°12'0 0.0
2018-May-14 21:00N 28°34' W 094°12'0 0.0
2018-May-14 20:27N 28°34' W 094°12'0 0.0
2018-May-14 20:00N 28°34' W 094°12'0 0.0
2018-May-14 19:30N 28°34' W 094°12'0 0.0
2018-May-14 18:51N 28°34' W 094°12'0 0.0
2018-May-14 18:30N 28°34' W 094°12'0 0.1
2018-May-14 17:57N 28°35' W 094°12'0 0.1
2018-May-14 17:27N 28°35' W 094°12'0 0.0
2018-May-14 16:57N 28°35' W 094°12'0 0.1
2018-May-14 16:24N 28°35' W 094°12'0 0.0
2018-May-14 16:00N 28°35' W 094°12'0 0.0
2018-May-14 15:30N 28°35' W 094°12'0 0.0
2018-May-14 14:15N 28°35' W 094°12'0 0.0
2018-May-14 13:03N 28°35' W 094°12'0 0.0
2018-May-14 12:48N 28°35' W 094°12'0 0.0
2018-May-14 11:15N 28°35' W 094°12'0 0.0
2018-May-14 11:00N 28°35' W 094°12'0 0.0
2018-May-14 10:21N 28°35' W 094°12'0 0.0
2018-May-14 10:00N 28°35' W 094°12'0 0.0
2018-May-14 06:48N 28°35' W 094°12'0 0.0
2018-May-13 02:39N 28°35' W 094°12'0 0.0
2018-May-13 02:27N 28°35' W 094°12'0 0.0
2018-May-12 22:39N 28°34' W 094°12'0 0.0
2018-May-12 10:51N 28°35' W 094°12'0 0.0
2018-May-12 10:30N 28°35' W 094°12'0 0.0
2018-May-12 09:48N 28°35' W 094°12'0 0.0
2018-May-12 09:30N 28°35' W 094°12'0 0.0
2018-May-12 09:00N 28°35' W 094°12'0 0.0
2018-May-12 08:21N 28°35' W 094°12'0 0.0
2018-May-12 08:00N 28°35' W 094°12'0 0.0
2018-May-12 07:30N 28°35' W 094°12'0 0.0
2018-May-12 06:51N 28°35' W 094°12'0 0.0
2018-May-11 02:21N 28°35' W 094°12'0 0.0
2018-May-11 01:48N 28°35' W 094°12'0 0.0
2018-May-10 21:30N 28°35' W 094°12'0 0.0
2018-May-10 21:00N 28°35' W 094°12'0 0.0
2018-May-10 20:00N 28°35' W 094°12'0 0.3
2018-May-10 19:30N 28°35' W 094°12'0 0.1
2018-May-10 18:54N 28°35' W 094°12'0 0.1
2018-May-10 18:30N 28°35' W 094°12'0 0.0
2018-May-10 15:57N 28°35' W 094°12'0 0.0
2018-May-10 15:15N 28°35' W 094°12'0 0.0
2018-May-10 14:57N 28°35' W 094°12'0 0.0
2018-May-10 14:30N 28°35' W 094°12'0 0.0
2018-May-10 13:54N 28°35' W 094°12'0 0.0
2018-May-10 12:27N 28°35' W 094°12'0 0.1
2018-May-10 12:00N 28°35' W 094°12'0 0.0
2018-May-10 11:15N 28°35' W 094°12'0 0.0
2018-May-10 11:00N 28°35' W 094°12'0 0.0
2018-May-10 10:30N 28°35' W 094°12'0 0.0
2018-May-10 10:00N 28°35' W 094°12'0 0.0
2018-May-10 09:27N 28°35' W 094°12'0 0.0
2018-May-10 09:00N 28°35' W 094°12'0 0.0
2018-May-10 08:30N 28°35' W 094°12'0 0.0
2018-May-10 07:57N 28°35' W 094°12'0 0.0
2018-May-10 07:18N 28°35' W 094°12'0 0.0
2018-May-10 06:57N 28°35' W 094°12'0 0.0
2018-May-10 06:24N 28°35' W 094°12'0 0.0
2018-May-10 06:00N 28°35' W 094°12'0 0.0
2018-May-10 05:30N 28°35' W 094°12'0 0.0
2018-May-10 04:57N 28°35' W 094°12'0 0.0
2018-May-10 04:30N 28°35' W 094°12'0 0.0
2018-May-10 04:00N 28°35' W 094°12'0 0.1
2018-May-10 02:45N 28°35' W 094°12'0 0.0
2018-May-09 21:06N 28°34' W 094°12'0 0.1
2018-May-09 20:42N 28°34' W 094°12'0 0.1
2018-May-09 20:27N 28°34' W 094°12'0 0.0
2018-May-09 18:42N 28°34' W 094°12'0 0.2
2018-May-09 18:30N 28°35' W 094°12'4 6.4
2018-May-09 17:48N 28°34' W 094°17'412.2
2018-May-09 17:30N 28°34' W 094°21'612.2
2018-May-09 17:00N 28°34' W 094°28'  

Dump ship's entire track history